Pagrindinis puslapis
METAR-TAF:

METAR-TAF

Oro uostai :

Tennant Creek, Australija

platuma: 19-38-04S, ilguma: 134-11-00E, Aukštis: 377 m

Dabartinis oras

Ataskaita buvo paskelbta 41 minutes, ne 20:00 UTC
Vėjas 17 kt iš Rytų/Pietryčių
Temperatūra 20°C
Drėgmė 40%
Slėgis 1016 hPa
Matomumas: 7000 m

METAR: YTNK 202000Z AUTO 11017KT 7000 // NCD 20/06 Q1016

Laikas: 06:11 (20:41 UTC)

Prognozė

Ataskaita buvo paskelbta 31 minutes, ne 20:10 UTC
Prognozė galioja nuo 20 metu 20 UTC su 21 metu 08 UTC
Vėjas 15 kt iš Rytų/Pietryčių
Matomumas 10 km arba daugiau
dulkės

TAF: YTNK 202010Z 2020/2108 12015KT 9999 DU NSC

Orai ataskaitas ir orų prognozės (METAR, TAF).

turimą stotys yra geltonos ir raudonos taškus žemėlapyje.

Perkelti pele per norėdami pamatyti stoties vardą.

Tada spustelėkite, norėdami matyti oro stebėjimo ir prognozės.

Norėdami pakeisti žemėlapį: spustelėkite ant žalios mygtukų su juodo kryžiaus žemyn,; žalią mygtuką su brūkšneliu, jei norite nutolinti; arba žalių rodyklių gretimoms žemėlapius.


METAR-TAF: